Canso, Canada
Current Conditions -  °F | °C
As of 2:00 PM on Monday 22 Dec 2014 (Local Time) from CYPD Reporting Station
Overcast Overcast  
Wind Chill: 28°   Ceiling: 1700
Heat Index: 28°   Visibility: 9mi
Dew Point: 21°   Wind: 3mph
Humidity: 74%   Direction: NA
Pressure: 30.42"   Gusts: NA
Location:  45.34°N, 61°W
Report Text: CYPD 221800Z AUTO VRB03KT 9SM OVC017 M02/M06 A3042 RMK SLP308
Loading
Personal Weather Stations






























Interactive Weather Map New forecast layout! Learn more

10-Day Weather Forecast

Advertisements
Track Severe Weather on mobile